createdAt,value
2019-04-23T00:00:29.408Z,992.92
2019-04-23T00:01:35.372Z,992.85
2019-04-23T00:02:30.140Z,992.88
2019-04-23T00:03:36.007Z,992.86
2019-04-23T00:04:28.397Z,992.83
2019-04-23T00:05:48.558Z,992.84
2019-04-23T00:06:32.208Z,992.85
2019-04-23T00:07:44.307Z,992.81
2019-04-23T00:08:41.996Z,992.79
2019-04-23T00:09:36.852Z,992.81
2019-04-23T00:10:53.742Z,992.74
2019-04-23T00:11:32.534Z,992.74
2019-04-23T00:12:47.848Z,992.72
2019-04-23T00:13:39.325Z,992.75
2019-04-23T00:14:38.512Z,992.73
2019-04-23T00:15:30.428Z,992.71
2019-04-23T00:16:39.458Z,992.73
2019-04-23T00:17:40.234Z,992.69
2019-04-23T00:18:42.652Z,992.71
2019-04-23T00:19:31.154Z,992.71
2019-04-23T00:20:34.875Z,992.64
2019-04-23T00:21:33.367Z,992.67
2019-04-23T00:23:49.807Z,992.62
2019-04-23T00:24:56.790Z,992.62
2019-04-23T00:26:50.459Z,992.61
2019-04-23T00:27:38.869Z,992.59
2019-04-23T00:28:35.906Z,992.60
2019-04-23T00:29:37.058Z,992.61
2019-04-23T00:30:43.220Z,992.63
2019-04-23T00:31:41.204Z,992.59
2019-04-23T00:32:35.055Z,992.56
2019-04-23T00:33:34.604Z,992.60
2019-04-23T00:34:42.658Z,992.59
2019-04-23T00:35:38.660Z,992.56
2019-04-23T00:37:37.392Z,992.59
2019-04-23T00:38:38.405Z,992.60
2019-04-23T00:39:41.002Z,992.65
2019-04-23T00:40:40.385Z,992.67
2019-04-23T00:41:36.624Z,992.64
2019-04-23T00:43:00.655Z,992.65
2019-04-23T00:43:34.252Z,992.63
2019-04-23T00:44:40.067Z,992.63
2019-04-23T00:45:40.721Z,992.63
2019-04-23T00:46:34.955Z,992.61
2019-04-23T00:47:51.388Z,992.58
2019-04-23T00:50:04.331Z,992.57
2019-04-23T00:50:44.980Z,992.54
2019-04-23T00:51:38.243Z,992.52
2019-04-23T00:52:50.691Z,992.51
2019-04-23T00:53:34.226Z,992.48
2019-04-23T00:54:46.840Z,992.45
2019-04-23T00:55:35.598Z,992.52
2019-04-23T00:56:57.028Z,992.48
2019-04-23T00:59:41.141Z,992.53
2019-04-23T01:01:47.752Z,992.50
2019-04-23T01:02:37.290Z,992.53
2019-04-23T01:03:37.454Z,992.49
2019-04-23T01:04:41.798Z,992.49
2019-04-23T01:05:37.718Z,992.48
2019-04-23T01:06:39.349Z,992.46
2019-04-23T01:07:40.337Z,992.44
2019-04-23T01:08:36.871Z,992.45
2019-04-23T01:09:42.263Z,992.49
2019-04-23T01:10:34.900Z,992.44
2019-04-23T01:11:34.211Z,992.46
2019-04-23T01:14:38.581Z,992.40
2019-04-23T01:15:39.111Z,992.33
2019-04-23T01:16:38.114Z,992.37
2019-04-23T01:17:39.946Z,992.36
2019-04-23T01:18:49.093Z,992.34
2019-04-23T01:19:37.486Z,992.37
2019-04-23T01:20:36.571Z,992.37
2019-04-23T01:21:18.029Z,992.39
2019-04-23T01:22:16.927Z,992.37
2019-04-23T01:23:20.652Z,992.36
2019-04-23T01:24:20.131Z,992.32
2019-04-23T01:25:24.773Z,992.34
2019-04-23T01:26:39.079Z,992.30
2019-04-23T01:27:57.232Z,992.29
2019-04-23T01:28:50.278Z,992.30
2019-04-23T01:29:42.510Z,992.28
2019-04-23T01:30:40.507Z,992.24
2019-04-23T01:31:43.091Z,992.26
2019-04-23T01:32:44.048Z,992.27
2019-04-23T01:33:44.696Z,992.26
2019-04-23T01:34:51.958Z,992.22
2019-04-23T01:35:42.494Z,992.22
2019-04-23T01:36:37.231Z,992.20
2019-04-23T01:37:41.088Z,992.21
2019-04-23T01:38:45.541Z,992.21
2019-04-23T01:39:43.892Z,992.22
2019-04-23T01:40:40.611Z,992.20
2019-04-23T01:41:47.823Z,992.18
2019-04-23T01:43:44.351Z,992.13
2019-04-23T01:45:35.916Z,992.15
2019-04-23T01:47:45.373Z,992.12
2019-04-23T01:48:48.190Z,992.12
2019-04-23T01:49:56.532Z,992.08
2019-04-23T01:50:48.375Z,992.08
2019-04-23T01:51:46.801Z,992.07
2019-04-23T01:52:52.165Z,992.08
2019-04-23T01:53:45.489Z,992.04
2019-04-23T01:54:45.549Z,992.03
2019-04-23T01:55:46.999Z,992.04
2019-04-23T01:56:38.584Z,992.03
2019-04-23T01:58:51.874Z,992.01
2019-04-23T01:59:49.772Z,992.05
2019-04-23T02:00:49.423Z,991.96
2019-04-23T02:01:51.865Z,991.94
2019-04-23T02:02:49.600Z,991.93
2019-04-23T02:03:52.247Z,991.90
2019-04-23T02:04:46.117Z,991.91
2019-04-23T02:06:45.460Z,991.89
2019-04-23T02:07:53.711Z,991.87
2019-04-23T02:08:48.519Z,991.83
2019-04-23T02:09:53.188Z,991.83
2019-04-23T02:10:51.253Z,991.81
2019-04-23T02:11:43.829Z,991.79
2019-04-23T02:12:47.719Z,991.84
2019-04-23T02:13:48.987Z,991.82
2019-04-23T02:14:51.767Z,991.80
2019-04-23T02:16:44.107Z,991.78
2019-04-23T02:17:52.114Z,991.81
2019-04-23T02:18:49.318Z,991.84
2019-04-23T02:20:48.078Z,991.83
2019-04-23T02:21:54.821Z,991.82
2019-04-23T02:23:44.023Z,991.74
2019-04-23T02:24:47.696Z,991.74
2019-04-23T02:26:43.453Z,991.74
2019-04-23T02:27:52.248Z,991.75
2019-04-23T02:30:20.701Z,991.72
2019-04-23T02:31:58.193Z,991.74
2019-04-23T02:32:59.463Z,991.72
2019-04-23T02:35:02.341Z,991.73
2019-04-23T02:38:00.323Z,991.74
2019-04-23T02:40:01.021Z,991.72
2019-04-23T02:43:59.292Z,991.77
2019-04-23T02:44:56.346Z,991.72
2019-04-23T02:46:59.330Z,991.71
2019-04-23T02:48:01.511Z,991.72
2019-04-23T02:48:58.272Z,991.68
2019-04-23T02:50:33.632Z,991.65
2019-04-23T02:52:57.793Z,991.66
2019-04-23T02:56:51.478Z,991.64
2019-04-23T02:58:01.868Z,991.62
2019-04-23T03:02:12.009Z,991.62
2019-04-23T03:04:02.360Z,991.54
2019-04-23T03:05:57.264Z,991.53
2019-04-23T03:07:16.032Z,991.56
2019-04-23T03:07:54.237Z,991.56
2019-04-23T03:12:00.698Z,991.56
2019-04-23T03:13:19.800Z,991.61
2019-04-23T03:15:05.101Z,991.64
2019-04-23T03:17:03.053Z,991.62
2019-04-23T03:18:12.203Z,991.59
2019-04-23T03:19:58.578Z,991.61
2019-04-23T03:21:11.636Z,991.65
2019-04-23T03:26:00.191Z,991.58
2019-04-23T03:28:11.714Z,991.53
2019-04-23T03:29:04.297Z,991.51
2019-04-23T03:32:30.841Z,991.51
2019-04-23T03:37:55.774Z,991.49
2019-04-23T03:41:09.125Z,991.46
2019-04-23T03:42:24.415Z,991.44
2019-04-23T03:43:47.086Z,991.40
2019-04-23T03:46:12.141Z,991.46
2019-04-23T03:46:51.415Z,991.42
2019-04-23T03:48:00.804Z,991.41
2019-04-23T03:48:51.204Z,991.37
2019-04-23T03:50:58.206Z,991.36
2019-04-23T03:52:01.223Z,991.38
2019-04-23T03:52:57.639Z,991.37
2019-04-23T03:54:05.840Z,991.36
2019-04-23T03:54:49.046Z,991.37
2019-04-23T03:56:05.600Z,991.37
2019-04-23T03:57:52.602Z,991.35
2019-04-23T03:58:58.188Z,991.32
2019-04-23T04:00:04.021Z,991.33
2019-04-23T04:01:01.401Z,991.30
2019-04-23T04:04:49.858Z,991.26
2019-04-23T04:09:08.517Z,991.25
2019-04-23T04:09:53.875Z,991.21
2019-04-23T04:12:00.982Z,991.25
2019-04-23T04:12:56.899Z,991.21
2019-04-23T04:16:07.464Z,991.23
2019-04-23T04:16:59.862Z,991.19
2019-04-23T04:18:11.676Z,991.19
2019-04-23T04:21:08.750Z,991.20
2019-04-23T04:22:15.104Z,991.19
2019-04-23T04:23:07.887Z,991.16
2019-04-23T04:25:03.256Z,991.11
2019-04-23T04:26:00.288Z,991.11
2019-04-23T04:29:01.244Z,991.05
2019-04-23T04:30:01.646Z,991.03
2019-04-23T04:30:53.746Z,991.01
2019-04-23T04:36:10.297Z,990.97
2019-04-23T04:37:27.650Z,990.95
2019-04-23T04:38:05.725Z,990.94
2019-04-23T04:40:23.259Z,990.89
2019-04-23T04:41:04.286Z,990.87
2019-04-23T04:41:58.827Z,990.91
2019-04-23T04:46:59.181Z,990.81
2019-04-23T04:47:53.986Z,990.79
2019-04-23T04:51:07.983Z,990.75
2019-04-23T04:55:03.279Z,990.75
2019-04-23T04:56:14.281Z,990.77
2019-04-23T04:57:04.987Z,990.77
2019-04-23T04:57:58.148Z,990.75
2019-04-23T05:00:45.653Z,990.76
2019-04-23T05:02:09.669Z,990.76
2019-04-23T05:04:02.421Z,990.78
2019-04-23T05:07:22.880Z,990.80
2019-04-23T05:09:00.753Z,990.85
2019-04-23T05:10:08.797Z,990.82
2019-04-23T05:11:10.862Z,990.83
2019-04-23T05:13:21.370Z,990.78
2019-04-23T05:14:01.352Z,990.78
2019-04-23T05:15:02.680Z,990.78
2019-04-23T05:16:02.916Z,990.78
2019-04-23T05:17:19.829Z,990.74
2019-04-23T05:18:08.393Z,990.77
2019-04-23T05:19:20.071Z,990.78
2019-04-23T05:19:58.952Z,990.80
2019-04-23T05:21:08.107Z,990.77
2019-04-23T05:23:09.153Z,990.72
2019-04-23T05:24:06.685Z,990.73
2019-04-23T05:24:52.812Z,990.73
2019-04-23T05:26:02.801Z,990.73
2019-04-23T05:26:57.957Z,990.72
2019-04-23T05:28:07.697Z,990.76
2019-04-23T05:29:01.725Z,990.74
2019-04-23T05:30:02.213Z,990.74
2019-04-23T05:31:02.311Z,990.77
2019-04-23T05:31:53.530Z,990.78
2019-04-23T05:33:08.827Z,990.73
2019-04-23T05:34:02.965Z,990.74
2019-04-23T05:34:56.130Z,990.72
2019-04-23T05:36:12.786Z,990.71
2019-04-23T05:37:00.171Z,990.74
2019-04-23T05:38:08.856Z,990.71
2019-04-23T05:40:00.438Z,990.73
2019-04-23T05:41:03.714Z,990.72
2019-04-23T05:42:13.997Z,990.70
2019-04-23T05:42:58.726Z,990.71
2019-04-23T05:44:05.215Z,990.70
2019-04-23T05:45:00.827Z,990.66
2019-04-23T05:45:56.876Z,990.69
2019-04-23T05:47:06.312Z,990.65
2019-04-23T05:48:09.704Z,990.63
2019-04-23T05:49:04.556Z,990.67
2019-04-23T05:50:00.430Z,990.65
2019-04-23T05:51:09.642Z,990.62
2019-04-23T05:52:59.757Z,990.64
2019-04-23T05:53:58.397Z,990.61
2019-04-23T05:55:02.678Z,990.59
2019-04-23T05:56:01.973Z,990.59
2019-04-23T05:56:55.076Z,990.60
2019-04-23T05:58:06.435Z,990.57
2019-04-23T05:59:11.562Z,990.56
2019-04-23T06:00:04.226Z,990.52
2019-04-23T06:01:11.409Z,990.53
2019-04-23T06:01:58.627Z,990.52
2019-04-23T06:03:06.345Z,990.48
2019-04-23T06:04:57.342Z,990.46
2019-04-23T06:06:02.969Z,990.50
2019-04-23T06:08:03.443Z,990.55
2019-04-23T06:08:58.628Z,990.53
2019-04-23T06:09:59.455Z,990.47
2019-04-23T06:11:02.325Z,990.46
2019-04-23T06:12:59.681Z,990.47
2019-04-23T06:14:05.175Z,990.45
2019-04-23T06:15:01.652Z,990.48
2019-04-23T06:15:57.705Z,990.46
2019-04-23T06:17:03.179Z,990.46
2019-04-23T06:20:06.689Z,990.42
2019-04-23T06:21:15.646Z,990.40
2019-04-23T06:22:07.476Z,990.43
2019-04-23T06:23:06.388Z,990.37
2019-04-23T06:24:13.114Z,990.40
2019-04-23T06:25:03.357Z,990.38
2019-04-23T06:26:19.773Z,990.42
2019-04-23T06:28:05.094Z,990.34
2019-04-23T06:29:05.017Z,990.33
2019-04-23T06:30:23.896Z,990.32
2019-04-23T06:31:04.996Z,990.33
2019-04-23T06:32:14.927Z,990.38
2019-04-23T06:32:59.644Z,990.40
2019-04-23T06:34:04.196Z,990.39
2019-04-23T06:35:01.494Z,990.39
2019-04-23T06:36:05.497Z,990.34
2019-04-23T06:37:06.870Z,990.37
2019-04-23T06:38:26.137Z,990.37
2019-04-23T06:40:00.387Z,990.32
2019-04-23T06:41:00.799Z,990.30
2019-04-23T06:42:00.454Z,990.28
2019-04-23T06:43:05.361Z,990.31
2019-04-23T06:44:05.823Z,990.31
2019-04-23T06:45:02.954Z,990.33
2019-04-23T06:45:59.080Z,990.35
2019-04-23T06:47:03.711Z,990.28
2019-04-23T06:48:09.179Z,990.31
2019-04-23T06:49:00.849Z,990.29
2019-04-23T06:50:00.131Z,990.29
2019-04-23T06:51:04.254Z,990.25
2019-04-23T06:52:08.632Z,990.28
2019-04-23T06:52:57.211Z,990.27
2019-04-23T06:55:01.155Z,990.31
2019-04-23T06:56:03.867Z,990.27
2019-04-23T06:57:14.604Z,990.32
2019-04-23T06:58:04.490Z,990.29
2019-04-23T06:59:06.368Z,990.23
2019-04-23T07:00:02.398Z,990.21
2019-04-23T07:01:02.079Z,990.25
2019-04-23T07:02:06.658Z,990.24
2019-04-23T07:03:10.828Z,990.22
2019-04-23T07:04:05.467Z,990.19
2019-04-23T07:07:24.141Z,990.15
2019-04-23T07:08:02.788Z,990.15
2019-04-23T07:09:10.724Z,990.16
2019-04-23T07:09:59.377Z,990.15
2019-04-23T07:11:07.890Z,990.18
2019-04-23T07:11:55.535Z,990.13
2019-04-23T07:13:08.889Z,990.10
2019-04-23T07:15:04.472Z,990.08
2019-04-23T07:16:03.189Z,990.09
2019-04-23T07:17:04.189Z,990.05
2019-04-23T07:18:05.806Z,990.07
2019-04-23T07:20:00.242Z,990.10
2019-04-23T07:21:09.453Z,990.11
2019-04-23T07:22:16.400Z,990.06
2019-04-23T07:23:10.195Z,990.03
2019-04-23T07:24:05.211Z,990.03
2019-04-23T07:26:08.075Z,990.02
2019-04-23T07:27:03.310Z,990.00
2019-04-23T07:28:06.890Z,989.97
2019-04-23T07:29:08.971Z,989.99
2019-04-23T07:30:08.684Z,989.92
2019-04-23T07:31:07.345Z,989.92
2019-04-23T07:33:04.524Z,989.83
2019-04-23T07:34:20.428Z,989.86
2019-04-23T07:35:07.232Z,989.83
2019-04-23T07:36:08.580Z,989.81
2019-04-23T07:37:06.950Z,989.81
2019-04-23T07:38:16.363Z,989.78
2019-04-23T07:39:11.638Z,989.80
2019-04-23T07:41:15.327Z,989.74
2019-04-23T07:42:08.108Z,989.70
2019-04-23T07:44:16.669Z,989.71
2019-04-23T07:46:10.547Z,989.69
2019-04-23T07:47:16.193Z,989.71
2019-04-23T07:48:10.854Z,989.72
2019-04-23T07:49:04.618Z,989.72
2019-04-23T07:50:19.092Z,989.72
2019-04-23T07:51:03.339Z,989.71
2019-04-23T07:54:08.064Z,989.69
2019-04-23T07:55:16.326Z,989.66
2019-04-23T07:56:07.502Z,989.67
2019-04-23T07:57:13.488Z,989.61
2019-04-23T07:58:14.294Z,989.60
2019-04-23T07:59:16.049Z,989.60
2019-04-23T08:00:29.707Z,989.61
2019-04-23T08:01:11.264Z,989.58
2019-04-23T08:02:15.915Z,989.59
2019-04-23T08:03:13.560Z,989.55
2019-04-23T08:04:30.188Z,989.57
2019-04-23T08:05:21.595Z,989.56
2019-04-23T08:06:04.230Z,989.56
2019-04-23T08:07:12.834Z,989.57
2019-04-23T08:08:07.286Z,989.55
2019-04-23T08:09:08.549Z,989.55
2019-04-23T08:10:10.394Z,989.59
2019-04-23T08:11:30.471Z,989.53
2019-04-23T08:12:13.690Z,989.47
2019-04-23T08:13:10.336Z,989.53
2019-04-23T08:14:05.172Z,989.53
2019-04-23T08:15:13.082Z,989.54
2019-04-23T08:16:19.152Z,989.52
2019-04-23T08:17:07.395Z,989.43
2019-04-23T08:18:08.893Z,989.46
2019-04-23T08:19:24.555Z,989.44
2019-04-23T08:20:07.860Z,989.42
2019-04-23T08:21:10.448Z,989.45
2019-04-23T08:22:09.174Z,989.40
2019-04-23T08:23:12.532Z,989.43
2019-04-23T08:24:17.011Z,989.38
2019-04-23T08:25:27.249Z,989.38
2019-04-23T08:26:13.598Z,989.33
2019-04-23T08:27:16.629Z,989.32
2019-04-23T08:28:13.551Z,989.35
2019-04-23T08:29:12.280Z,989.30
2019-04-23T08:30:04.532Z,989.30
2019-04-23T08:34:18.642Z,989.23
2019-04-23T08:36:12.239Z,989.22
2019-04-23T08:37:08.902Z,989.28
2019-04-23T08:39:11.539Z,989.29
2019-04-23T08:40:20.176Z,989.27
2019-04-23T08:41:20.644Z,989.29
2019-04-23T08:42:27.055Z,989.28
2019-04-23T08:44:15.582Z,989.23
2019-04-23T08:45:18.709Z,989.26
2019-04-23T08:46:13.990Z,989.25
2019-04-23T08:47:10.099Z,989.23
2019-04-23T08:49:13.977Z,989.23
2019-04-23T08:50:06.812Z,989.20
2019-04-23T08:51:22.325Z,989.18
2019-04-23T08:52:11.791Z,989.16
2019-04-23T08:53:26.369Z,989.17
2019-04-23T08:54:13.300Z,989.19
2019-04-23T08:55:08.675Z,989.17
2019-04-23T08:56:10.639Z,989.19
2019-04-23T08:57:22.706Z,989.19
2019-04-23T08:58:14.101Z,989.20
2019-04-23T08:59:22.896Z,989.15
2019-04-23T09:00:07.827Z,989.14
2019-04-23T09:01:10.830Z,989.15
2019-04-23T09:02:25.564Z,989.17
2019-04-23T09:04:10.614Z,989.15
2019-04-23T09:05:20.802Z,989.12
2019-04-23T09:06:25.844Z,989.13
2019-04-23T09:07:16.719Z,989.09
2019-04-23T09:09:13.233Z,989.04
2019-04-23T09:10:15.345Z,989.09
2019-04-23T09:12:18.866Z,989.03
2019-04-23T09:13:35.291Z,989.01
2019-04-23T09:14:05.210Z,989.01
2019-04-23T09:15:16.810Z,989.02
2019-04-23T09:16:09.011Z,989.01
2019-04-23T09:17:17.201Z,989.05
2019-04-23T09:19:16.036Z,989.01
2019-04-23T09:22:25.141Z,989.06
2019-04-23T09:23:13.306Z,989.02
2019-04-23T09:24:09.591Z,989.02
2019-04-23T09:25:20.300Z,988.97
2019-04-23T09:26:22.742Z,989.02
2019-04-23T09:27:18.143Z,989.00
2019-04-23T09:28:24.017Z,989.01
2019-04-23T09:29:14.795Z,989.05
2019-04-23T09:30:12.600Z,989.06
2019-04-23T09:32:22.422Z,989.07
2019-04-23T09:33:14.063Z,989.07
2019-04-23T09:34:11.439Z,989.07
2019-04-23T09:35:20.229Z,989.05
2019-04-23T09:36:13.579Z,989.09
2019-04-23T09:37:18.843Z,989.04
2019-04-23T09:38:11.705Z,989.09
2019-04-23T09:39:12.897Z,989.09
2019-04-23T09:40:27.597Z,989.08
2019-04-23T09:42:16.156Z,989.06
2019-04-23T09:43:14.145Z,989.10
2019-04-23T09:44:39.118Z,989.08
2019-04-23T09:45:12.996Z,989.08
2019-04-23T09:46:17.435Z,989.10
2019-04-23T09:47:16.024Z,989.06
2019-04-23T09:48:04.937Z,989.10
2019-04-23T09:49:36.207Z,989.04
2019-04-23T09:50:15.675Z,989.08
2019-04-23T09:51:17.903Z,989.10
2019-04-23T09:52:14.603Z,989.13
2019-04-23T09:55:24.486Z,989.15
2019-04-23T09:56:14.847Z,989.16
2019-04-23T09:57:14.060Z,989.16
2019-04-23T09:58:11.868Z,989.09
2019-04-23T09:59:32.341Z,989.11
2019-04-23T10:00:23.074Z,989.12
2019-04-23T10:01:20.912Z,989.12
2019-04-23T10:02:06.620Z,989.09
2019-04-23T10:03:02.402Z,989.14
2019-04-23T10:04:00.048Z,989.08
2019-04-23T10:04:59.567Z,989.14
2019-04-23T10:05:57.152Z,989.02
2019-04-23T10:07:03.249Z,989.07
2019-04-23T10:07:58.631Z,989.08
2019-04-23T10:08:51.921Z,989.05
2019-04-23T10:09:48.367Z,989.02
2019-04-23T10:10:47.286Z,989.03
2019-04-23T10:11:47.330Z,989.02
2019-04-23T10:12:48.213Z,988.98
2019-04-23T10:13:48.382Z,989.03
2019-04-23T10:14:59.267Z,988.98
2019-04-23T10:15:49.666Z,989.00
2019-04-23T10:16:49.242Z,989.00
2019-04-23T10:17:47.692Z,988.98
2019-04-23T10:18:49.123Z,988.95
2019-04-23T10:19:48.669Z,989.01
2019-04-23T10:20:48.737Z,988.98
2019-04-23T10:21:49.190Z,988.98
2019-04-23T10:22:48.321Z,988.97
2019-04-23T10:23:49.564Z,988.96
2019-04-23T10:24:48.792Z,988.97
2019-04-23T10:25:48.189Z,988.91
2019-04-23T10:26:48.253Z,989.09
2019-04-23T10:27:55.075Z,989.22
2019-04-23T10:28:49.808Z,989.27
2019-04-23T10:29:49.849Z,989.32
2019-04-23T10:30:49.016Z,989.37
2019-04-23T10:31:49.460Z,989.41
2019-04-23T10:32:49.492Z,989.45
2019-04-23T10:33:50.284Z,989.44
2019-04-23T10:34:57.832Z,989.35
2019-04-23T10:35:55.109Z,989.19
2019-04-23T10:36:49.525Z,989.21
2019-04-23T10:37:56.855Z,989.17
2019-04-23T10:38:55.885Z,989.15
2019-04-23T10:39:54.855Z,989.11
2019-04-23T10:40:50.158Z,989.07
2019-04-23T10:41:50.969Z,989.04
2019-04-23T10:42:51.491Z,988.95
2019-04-23T10:43:52.368Z,988.95
2019-04-23T10:44:52.117Z,989.04
2019-04-23T10:46:07.975Z,989.03
2019-04-23T10:47:15.174Z,989.12
2019-04-23T10:49:32.135Z,989.03
2019-04-23T10:50:17.274Z,989.04
2019-04-23T10:51:25.054Z,989.10
2019-04-23T10:54:26.294Z,989.08
2019-04-23T10:55:11.861Z,989.07
2019-04-23T10:56:20.733Z,989.11
2019-04-23T10:57:33.911Z,989.19
2019-04-23T10:59:19.850Z,989.24
2019-04-23T11:00:22.314Z,989.22
2019-04-23T11:01:20.856Z,989.26
2019-04-23T11:02:32.876Z,989.32
2019-04-23T11:03:38.167Z,989.20
2019-04-23T11:04:38.505Z,989.38
2019-04-23T11:05:35.530Z,989.53
2019-04-23T11:06:28.771Z,989.45
2019-04-23T11:07:28.558Z,989.54
2019-04-23T11:08:18.291Z,989.60
2019-04-23T11:09:36.594Z,989.55
2019-04-23T11:10:16.088Z,989.59
2019-04-23T11:11:24.041Z,989.63
2019-04-23T11:12:32.492Z,989.62
2019-04-23T11:13:25.635Z,989.61
2019-04-23T11:14:25.586Z,989.64
2019-04-23T11:15:32.465Z,989.58
2019-04-23T11:17:31.967Z,989.62
2019-04-23T11:18:34.103Z,989.63
2019-04-23T11:19:27.646Z,989.63
2019-04-23T11:20:35.371Z,989.56
2019-04-23T11:22:40.275Z,989.53
2019-04-23T11:23:17.030Z,989.48
2019-04-23T11:24:30.490Z,989.49
2019-04-23T11:25:33.106Z,989.57
2019-04-23T11:26:26.424Z,989.48
2019-04-23T11:27:25.973Z,989.46
2019-04-23T11:28:25.792Z,989.30
2019-04-23T11:29:27.972Z,989.34
2019-04-23T11:31:31.561Z,989.34
2019-04-23T11:32:42.855Z,989.34
2019-04-23T11:33:19.894Z,989.30
2019-04-23T11:34:46.006Z,989.28
2019-04-23T11:37:37.967Z,989.18
2019-04-23T11:39:21.697Z,989.17
2019-04-23T11:40:31.317Z,989.16
2019-04-23T11:41:31.007Z,989.15
2019-04-23T11:43:34.237Z,989.11
2019-04-23T11:44:26.957Z,989.21
2019-04-23T11:45:32.510Z,989.14
2019-04-23T11:46:39.901Z,989.10
2019-04-23T11:48:00.451Z,989.15
2019-04-23T11:49:51.049Z,989.09
2019-04-23T11:50:28.117Z,989.09
2019-04-23T11:52:30.090Z,989.03
2019-04-23T11:53:26.063Z,989.08
2019-04-23T11:54:27.766Z,989.08
2019-04-23T11:55:35.789Z,989.09
2019-04-23T11:56:49.211Z,989.05
2019-04-23T11:59:31.651Z,989.07
2019-04-23T12:00:26.211Z,989.10
2019-04-23T12:02:23.449Z,989.04
2019-04-23T12:03:19.398Z,988.99
2019-04-23T12:05:26.587Z,988.93
2019-04-23T12:07:22.831Z,989.07
2019-04-23T12:08:36.512Z,989.14
2019-04-23T12:09:35.288Z,989.00
2019-04-23T12:10:29.069Z,989.02
2019-04-23T12:11:48.976Z,989.05
2019-04-23T12:12:25.081Z,989.00
2019-04-23T12:13:32.185Z,988.94
2019-04-23T12:14:37.177Z,988.90
2019-04-23T12:16:28.504Z,988.96
2019-04-23T12:20:28.919Z,988.92
2019-04-23T12:21:32.419Z,988.90
2019-04-23T12:24:53.617Z,988.89
2019-04-23T12:25:27.894Z,988.94
2019-04-23T12:26:40.777Z,988.93
2019-04-23T12:28:36.570Z,988.97
2019-04-23T12:29:33.905Z,989.01
2019-04-23T12:31:29.264Z,988.96
2019-04-23T12:33:39.126Z,988.97
2019-04-23T12:34:30.053Z,988.96
2019-04-23T12:35:25.691Z,988.97
2019-04-23T12:36:28.199Z,988.95
2019-04-23T12:37:33.388Z,988.96
2019-04-23T12:39:27.116Z,988.98
2019-04-23T12:41:29.859Z,989.02
2019-04-23T12:43:27.480Z,989.01
2019-04-23T12:44:30.654Z,989.11
2019-04-23T12:45:31.712Z,989.12
2019-04-23T12:46:29.670Z,989.12
2019-04-23T12:47:43.651Z,989.08
2019-04-23T12:48:33.731Z,989.01
2019-04-23T12:49:47.952Z,988.92
2019-04-23T12:51:34.997Z,988.78
2019-04-23T12:52:36.000Z,988.64
2019-04-23T12:53:30.626Z,988.61
2019-04-23T12:54:47.078Z,988.59
2019-04-23T12:55:41.910Z,988.60
2019-04-23T12:56:21.927Z,988.58
2019-04-23T12:57:29.666Z,988.66
2019-04-23T12:58:26.721Z,988.62
2019-04-23T12:59:28.653Z,988.60
2019-04-23T13:00:27.135Z,988.62
2019-04-23T13:01:37.791Z,988.56
2019-04-23T13:02:41.181Z,988.58
2019-04-23T13:04:24.872Z,988.58
2019-04-23T13:06:20.424Z,988.64
2019-04-23T13:07:36.729Z,988.64
2019-04-23T13:08:33.242Z,988.58
2019-04-23T13:09:42.919Z,988.68
2019-04-23T13:10:30.053Z,988.71
2019-04-23T13:11:32.994Z,988.67
2019-04-23T13:12:38.185Z,988.61
2019-04-23T13:13:27.986Z,988.62
2019-04-23T13:14:34.757Z,988.63
2019-04-23T13:17:42.581Z,988.66
2019-04-23T13:19:40.156Z,988.65
2019-04-23T13:20:28.041Z,988.63
2019-04-23T13:21:52.182Z,988.66
2019-04-23T13:22:37.431Z,988.65
2019-04-23T13:24:26.479Z,988.57
2019-04-23T13:25:34.813Z,988.60
2019-04-23T13:26:27.978Z,988.60
2019-04-23T13:27:38.638Z,988.46
2019-04-23T13:28:28.127Z,988.47
2019-04-23T13:29:41.017Z,988.45
2019-04-23T13:30:44.730Z,988.41
2019-04-23T13:31:20.449Z,988.38
2019-04-23T13:32:31.371Z,988.28
2019-04-23T13:33:35.494Z,988.36
2019-04-23T13:34:37.613Z,988.38
2019-04-23T13:36:32.470Z,988.38
2019-04-23T13:37:40.456Z,988.39
2019-04-23T13:38:36.312Z,988.38
2019-04-23T13:39:34.813Z,988.36
2019-04-23T13:40:47.522Z,988.29
2019-04-23T13:41:30.189Z,988.30
2019-04-23T13:43:36.256Z,988.28
2019-04-23T13:44:34.370Z,988.20
2019-04-23T13:46:32.936Z,988.18
2019-04-23T13:47:41.431Z,988.17
2019-04-23T13:48:19.930Z,988.16
2019-04-23T13:49:37.754Z,988.22
2019-04-23T13:55:00.027Z,988.23
2019-04-23T13:55:26.681Z,988.17
2019-04-23T13:56:39.261Z,988.17
2019-04-23T13:58:02.313Z,988.18
2019-04-23T13:58:28.361Z,988.06
2019-04-23T13:59:42.906Z,988.06
2019-04-23T14:01:35.445Z,988.07
2019-04-23T14:02:40.385Z,988.07
2019-04-23T14:03:35.765Z,988.01
2019-04-23T14:04:41.690Z,988.07
2019-04-23T14:05:33.104Z,988.07
2019-04-23T14:07:44.135Z,988.10
2019-04-23T14:10:44.860Z,988.13
2019-04-23T14:12:43.717Z,988.11
2019-04-23T14:14:42.129Z,988.16
2019-04-23T14:15:40.543Z,988.09
2019-04-23T14:16:39.702Z,988.15
2019-04-23T14:18:53.892Z,988.00
2019-04-23T14:19:28.092Z,988.03
2019-04-23T14:21:35.281Z,988.08
2019-04-23T14:22:51.242Z,988.01
2019-04-23T14:23:59.447Z,988.00
2019-04-23T14:24:38.231Z,988.07
2019-04-23T14:25:40.093Z,988.05
2019-04-23T14:26:35.186Z,988.12
2019-04-23T14:28:37.353Z,988.00
2019-04-23T14:29:41.418Z,988.11
2019-04-23T14:30:38.537Z,988.09
2019-04-23T14:31:28.524Z,988.09
2019-04-23T14:33:46.049Z,988.01
2019-04-23T14:34:40.845Z,988.00
2019-04-23T14:35:32.529Z,988.00
2019-04-23T14:36:39.694Z,988.00
2019-04-23T14:37:38.193Z,988.00
2019-04-23T14:39:31.739Z,987.98
2019-04-23T14:40:43.167Z,988.01
2019-04-23T14:41:26.401Z,987.88
2019-04-23T14:42:49.782Z,987.95
2019-04-23T14:44:36.548Z,987.90
2019-04-23T14:46:41.411Z,987.93
2019-04-23T14:47:38.022Z,987.82
2019-04-23T14:48:30.717Z,987.89
2019-04-23T14:52:39.061Z,987.80
2019-04-23T14:53:30.352Z,987.80
2019-04-23T14:54:52.499Z,987.77
2019-04-23T14:56:35.049Z,987.72
2019-04-23T14:57:45.173Z,987.72
2019-04-23T14:58:57.561Z,987.80
2019-04-23T14:59:30.727Z,987.78
2019-04-23T15:00:46.469Z,987.82
2019-04-23T15:01:35.512Z,987.73
2019-04-23T15:02:44.928Z,987.69
2019-04-23T15:03:40.346Z,987.77
2019-04-23T15:04:39.362Z,987.76
2019-04-23T15:05:45.974Z,987.81
2019-04-23T15:06:46.832Z,987.77
2019-04-23T15:07:36.972Z,987.81
2019-04-23T15:08:50.082Z,987.75
2019-04-23T15:09:52.789Z,987.76
2019-04-23T15:10:49.195Z,987.78
2019-04-23T15:11:35.412Z,987.73
2019-04-23T15:12:40.359Z,987.72
2019-04-23T15:13:38.581Z,987.65
2019-04-23T15:14:46.349Z,987.66
2019-04-23T15:15:31.868Z,987.70
2019-04-23T15:16:39.787Z,987.68
2019-04-23T15:17:34.679Z,987.67
2019-04-23T15:18:45.196Z,987.66
2019-04-23T15:20:39.270Z,987.70
2019-04-23T15:22:42.411Z,987.60
2019-04-23T15:24:38.447Z,987.57
2019-04-23T15:25:53.152Z,987.58
2019-04-23T15:26:58.870Z,987.70
2019-04-23T15:27:45.675Z,987.61
2019-04-23T15:28:14.208Z,987.59
2019-04-23T15:29:26.731Z,987.57
2019-04-23T15:30:38.759Z,987.64
2019-04-23T15:32:47.161Z,987.57
2019-04-23T15:33:44.955Z,987.59
2019-04-23T15:34:33.005Z,987.62
2019-04-23T15:35:53.357Z,987.66
2019-04-23T15:37:01.069Z,987.58
2019-04-23T15:38:43.452Z,987.60
2019-04-23T15:40:36.814Z,987.60
2019-04-23T15:42:00.829Z,987.57
2019-04-23T15:42:43.930Z,987.64
2019-04-23T15:43:46.798Z,987.61
2019-04-23T15:44:32.355Z,987.55
2019-04-23T15:45:42.373Z,987.60
2019-04-23T15:47:39.851Z,987.62
2019-04-23T15:48:46.440Z,987.56
2019-04-23T15:49:37.691Z,987.56
2019-04-23T15:50:37.203Z,987.55
2019-04-23T15:51:48.022Z,987.60
2019-04-23T15:52:44.307Z,987.61
2019-04-23T15:53:34.837Z,987.63